Etusivu
METAR-TAF:

METAR-TAF

Lentoasemat :

Fresno, Kalifornia, Yhdysvallat

Leveyspiiri: 36-46-48N, Pituuspiiri: 119-43-10W, korkeus merenpinnasta: 101 m

Tämänhetkinen sää

Tämä raportti tehtiin 1 tunti ja 3 minuuttia sitten, kello 18.53 UTC
Tuuli 7 kn etelästä/kaakosta
Lämpötila 34°C
Kosteus 30%
Ilmanpaine 1011 hPa
Näkyvyys: 16.1 km
Muutamia pilviä 7000 ft:n korkeudessa

METAR: KFAT 281853Z 16007KT 10SM FEW070 34/14 A2984 RMK AO2 SLP100 CU OMTNS DSNT E-S T03440139

Aika: 12:56 (19:56 UTC)

Sääennuste

Tämä raportti tehtiin 2 tuntia ja 36 minuuttia sitten, kello 17.20 UTC
Ennuste voimassa 28. päivästä klo 18 UTC - 29. päivään klo 18 UTC
Tuuli 3 kn eri suunnista
Näkyvyys: 10 km
selkeää
From 28. päivästä klo 2000 UTC
Tuuli 5 kn lännestä/luoteesta
Näkyvyys: 10 km
Muutamia pilviä 25000 ft:n korkeudessa

TAF: KFAT 281720Z 2818/2918 VRB03KT P6SM SKC FM282000 30005KT P6SM FEW250

Säähavainnot ja -ennusteet yli 4000 lentoasemalta (METAR- ja TAF-raportit).

Käytössä olevat sääasemat on merkitty karttaan keltaisilla ja punaisilla pisteillä.

Aseta hiiri pisteen päälle nähdäksesi sääaseman nimen.

Klikkaa sitten nähdäksesi säähavainnot ja -ennusteet.

Kartan vaihtaminen: klikkaa mustalla rastilla varustettuja vihreitä pisteitä, niin voit zoomata sisään; viivalla varustettua vihreää pistettä, niin voit zoomata ulos tai vihreitä nuolia, niin pääset viereisille kartoille.


METAR-TAF: